sensor_id;sensor_type;location;lat;lon;timestamp;P1;durP1;ratioP1;P2;durP2;ratioP2
75628;SDS011;64213;46.452;16.994;2023-02-19T00:02:12;30.02;;;13.25;;
75628;SDS011;64213;46.452;16.994;2023-02-19T00:05:14;29.55;;;13.50;;
75628;SDS011;64213;46.452;16.994;2023-02-19T00:08:17;32.67;;;14.07;;
75628;SDS011;64213;46.452;16.994;2023-02-19T00:11:21;32.90;;;13.13;;
75628;SDS011;64213;46.452;16.994;2023-02-19T00:14:26;34.07;;;13.87;;
75628;SDS011;64213;46.452;16.994;2023-02-19T00:17:29;33.90;;;13.73;;
75628;SDS011;64213;46.452;16.994;2023-02-19T00:20:32;28.25;;;12.50;;
75628;SDS011;64213;46.452;16.994;2023-02-19T00:23:35;33.38;;;13.85;;
75628;SDS011;64213;46.452;16.994;2023-02-19T00:26:38;30.87;;;12.60;;
75628;SDS011;64213;46.452;16.994;2023-02-19T00:29:41;32.97;;;12.90;;
75628;SDS011;64213;46.452;16.994;2023-02-19T00:32:48;32.00;;;14.13;;
75628;SDS011;64213;46.452;16.994;2023-02-19T00:35:52;34.40;;;13.70;;
75628;SDS011;64213;46.452;16.994;2023-02-19T00:38:54;31.35;;;11.90;;
75628;SDS011;64213;46.452;16.994;2023-02-19T00:41:57;28.80;;;11.67;;
75628;SDS011;64213;46.452;16.994;2023-02-19T00:45:01;29.10;;;12.07;;
75628;SDS011;64213;46.452;16.994;2023-02-19T00:48:04;31.75;;;12.98;;
75628;SDS011;64213;46.452;16.994;2023-02-19T00:51:06;29.73;;;12.68;;
75628;SDS011;64213;46.452;16.994;2023-02-19T00:54:09;27.08;;;12.10;;
75628;SDS011;64213;46.452;16.994;2023-02-19T00:57:12;27.63;;;12.20;;
75628;SDS011;64213;46.452;16.994;2023-02-19T01:00:15;30.57;;;13.10;;
75628;SDS011;64213;46.452;16.994;2023-02-19T01:03:17;31.12;;;13.13;;
75628;SDS011;64213;46.452;16.994;2023-02-19T01:06:20;32.25;;;12.65;;
75628;SDS011;64213;46.452;16.994;2023-02-19T01:09:23;30.90;;;11.80;;
75628;SDS011;64213;46.452;16.994;2023-02-19T01:12:25;29.83;;;12.60;;
75628;SDS011;64213;46.452;16.994;2023-02-19T01:15:28;27.93;;;11.53;;
75628;SDS011;64213;46.452;16.994;2023-02-19T01:18:33;26.60;;;11.30;;
75628;SDS011;64213;46.452;16.994;2023-02-19T01:21:36;25.62;;;11.43;;
75628;SDS011;64213;46.452;16.994;2023-02-19T01:24:40;26.30;;;11.27;;
75628;SDS011;64213;46.452;16.994;2023-02-19T01:27:42;27.50;;;11.57;;
75628;SDS011;64213;46.452;16.994;2023-02-19T01:30:45;28.27;;;11.37;;
75628;SDS011;64213;46.452;16.994;2023-02-19T01:33:52;26.00;;;11.68;;
75628;SDS011;64213;46.452;16.994;2023-02-19T01:36:57;27.33;;;11.23;;
75628;SDS011;64213;46.452;16.994;2023-02-19T01:40:00;24.52;;;10.02;;
75628;SDS011;64213;46.452;16.994;2023-02-19T01:43:02;25.20;;;10.13;;
75628;SDS011;64213;46.452;16.994;2023-02-19T01:46:05;23.30;;;9.37;;
75628;SDS011;64213;46.452;16.994;2023-02-19T01:52:26;26.17;;;10.02;;
75628;SDS011;64213;46.452;16.994;2023-02-19T01:55:35;24.92;;;9.77;;
75628;SDS011;64213;46.452;16.994;2023-02-19T01:58:38;26.27;;;10.40;;
75628;SDS011;64213;46.452;16.994;2023-02-19T02:01:41;25.63;;;9.90;;
75628;SDS011;64213;46.452;16.994;2023-02-19T02:04:44;24.83;;;10.57;;
75628;SDS011;64213;46.452;16.994;2023-02-19T02:07:46;31.08;;;14.27;;
75628;SDS011;64213;46.452;16.994;2023-02-19T02:11:24;25.73;;;11.40;;
75628;SDS011;64213;46.452;16.994;2023-02-19T02:14:28;28.00;;;13.53;;
75628;SDS011;64213;46.452;16.994;2023-02-19T02:21:16;23.45;;;10.15;;
75628;SDS011;64213;46.452;16.994;2023-02-19T02:30:57;23.43;;;10.83;;
75628;SDS011;64213;46.452;16.994;2023-02-19T02:37:08;29.35;;;11.12;;
75628;SDS011;64213;46.452;16.994;2023-02-19T02:40:13;38.75;;;15.60;;
75628;SDS011;64213;46.452;16.994;2023-02-19T02:43:17;36.28;;;14.40;;
75628;SDS011;64213;46.452;16.994;2023-02-19T02:46:30;76.90;;;26.70;;
75628;SDS011;64213;46.452;16.994;2023-02-19T02:49:36;30.47;;;12.43;;
75628;SDS011;64213;46.452;16.994;2023-02-19T02:53:01;26.08;;;11.60;;
75628;SDS011;64213;46.452;16.994;2023-02-19T02:56:25;26.05;;;10.77;;
75628;SDS011;64213;46.452;16.994;2023-02-19T02:59:30;24.58;;;9.02;;
75628;SDS011;64213;46.452;16.994;2023-02-19T03:02:36;24.13;;;10.37;;
75628;SDS011;64213;46.452;16.994;2023-02-19T03:05:41;27.30;;;10.03;;
75628;SDS011;64213;46.452;16.994;2023-02-19T03:08:55;28.20;;;11.43;;
75628;SDS011;64213;46.452;16.994;2023-02-19T03:12:10;28.77;;;11.23;;
75628;SDS011;64213;46.452;16.994;2023-02-19T03:15:35;22.40;;;9.13;;
75628;SDS011;64213;46.452;16.994;2023-02-19T03:19:04;26.47;;;10.23;;
75628;SDS011;64213;46.452;16.994;2023-02-19T03:22:21;24.23;;;10.50;;
75628;SDS011;64213;46.452;16.994;2023-02-19T03:25:31;27.75;;;13.02;;
75628;SDS011;64213;46.452;16.994;2023-02-19T03:28:55;24.67;;;10.65;;
75628;SDS011;64213;46.452;16.994;2023-02-19T03:32:20;26.60;;;10.45;;
75628;SDS011;64213;46.452;16.994;2023-02-19T03:35:29;24.90;;;9.77;;
75628;SDS011;64213;46.452;16.994;2023-02-19T03:41:43;25.62;;;10.27;;
75628;SDS011;64213;46.452;16.994;2023-02-19T03:44:55;26.62;;;9.88;;
75628;SDS011;64213;46.452;16.994;2023-02-19T03:48:39;24.40;;;9.68;;
75628;SDS011;64213;46.452;16.994;2023-02-19T03:51:50;25.73;;;10.40;;
75628;SDS011;64213;46.452;16.994;2023-02-19T03:55:24;29.33;;;11.50;;
75628;SDS011;64213;46.452;16.994;2023-02-19T04:01:49;28.50;;;10.95;;
75628;SDS011;64213;46.452;16.994;2023-02-19T04:08:20;26.20;;;10.87;;
75628;SDS011;64213;46.452;16.994;2023-02-19T04:11:25;27.63;;;9.50;;
75628;SDS011;64213;46.452;16.994;2023-02-19T04:14:34;29.40;;;11.77;;
75628;SDS011;64213;46.452;16.994;2023-02-19T04:17:52;22.73;;;9.50;;
75628;SDS011;64213;46.452;16.994;2023-02-19T04:20:58;28.95;;;11.27;;
75628;SDS011;64213;46.452;16.994;2023-02-19T04:24:02;29.17;;;11.10;;
75628;SDS011;64213;46.452;16.994;2023-02-19T04:27:09;29.33;;;12.03;;
75628;SDS011;64213;46.452;16.994;2023-02-19T04:30:13;30.52;;;11.95;;
75628;SDS011;64213;46.452;16.994;2023-02-19T04:33:16;33.33;;;12.48;;
75628;SDS011;64213;46.452;16.994;2023-02-19T04:36:18;27.00;;;12.37;;
75628;SDS011;64213;46.452;16.994;2023-02-19T04:39:20;28.77;;;12.23;;
75628;SDS011;64213;46.452;16.994;2023-02-19T04:42:23;31.10;;;13.37;;
75628;SDS011;64213;46.452;16.994;2023-02-19T04:45:25;33.58;;;13.10;;
75628;SDS011;64213;46.452;16.994;2023-02-19T04:48:27;35.45;;;13.85;;
75628;SDS011;64213;46.452;16.994;2023-02-19T04:51:30;35.75;;;13.43;;
75628;SDS011;64213;46.452;16.994;2023-02-19T04:54:33;34.20;;;12.90;;
75628;SDS011;64213;46.452;16.994;2023-02-19T04:57:35;33.10;;;12.87;;
75628;SDS011;64213;46.452;16.994;2023-02-19T05:00:38;31.40;;;12.25;;
75628;SDS011;64213;46.452;16.994;2023-02-19T05:03:41;38.10;;;14.73;;
75628;SDS011;64213;46.452;16.994;2023-02-19T05:06:43;37.42;;;14.80;;
75628;SDS011;64213;46.452;16.994;2023-02-19T05:09:45;35.53;;;13.80;;
75628;SDS011;64213;46.452;16.994;2023-02-19T05:12:48;35.17;;;13.40;;
75628;SDS011;64213;46.452;16.994;2023-02-19T05:15:54;35.80;;;14.90;;
75628;SDS011;64213;46.452;16.994;2023-02-19T05:19:10;36.58;;;14.23;;
75628;SDS011;64213;46.452;16.994;2023-02-19T05:22:13;37.40;;;14.93;;
75628;SDS011;64213;46.452;16.994;2023-02-19T05:25:16;37.20;;;15.27;;
75628;SDS011;64213;46.452;16.994;2023-02-19T05:28:18;35.43;;;13.83;;
75628;SDS011;64213;46.452;16.994;2023-02-19T05:31:21;33.25;;;12.10;;
75628;SDS011;64213;46.452;16.994;2023-02-19T05:34:24;38.50;;;16.50;;
75628;SDS011;64213;46.452;16.994;2023-02-19T05:37:27;36.35;;;14.50;;
75628;SDS011;64213;46.452;16.994;2023-02-19T05:40:29;38.67;;;14.30;;
75628;SDS011;64213;46.452;16.994;2023-02-19T05:43:31;38.20;;;14.40;;
75628;SDS011;64213;46.452;16.994;2023-02-19T05:46:34;37.97;;;14.57;;
75628;SDS011;64213;46.452;16.994;2023-02-19T05:49:36;36.47;;;13.45;;
75628;SDS011;64213;46.452;16.994;2023-02-19T05:52:39;41.20;;;15.02;;
75628;SDS011;64213;46.452;16.994;2023-02-19T05:55:41;38.67;;;13.80;;
75628;SDS011;64213;46.452;16.994;2023-02-19T05:58:44;36.70;;;14.67;;
75628;SDS011;64213;46.452;16.994;2023-02-19T06:01:47;37.10;;;14.77;;
75628;SDS011;64213;46.452;16.994;2023-02-19T06:04:51;38.70;;;15.13;;
75628;SDS011;64213;46.452;16.994;2023-02-19T06:07:53;38.25;;;13.85;;
75628;SDS011;64213;46.452;16.994;2023-02-19T06:10:56;38.40;;;14.03;;
75628;SDS011;64213;46.452;16.994;2023-02-19T06:13:59;38.50;;;14.43;;
75628;SDS011;64213;46.452;16.994;2023-02-19T06:17:01;40.72;;;14.95;;
75628;SDS011;64213;46.452;16.994;2023-02-19T06:20:04;42.40;;;17.12;;
75628;SDS011;64213;46.452;16.994;2023-02-19T06:23:07;39.83;;;15.43;;
75628;SDS011;64213;46.452;16.994;2023-02-19T06:26:19;39.13;;;15.50;;
75628;SDS011;64213;46.452;16.994;2023-02-19T06:29:23;37.37;;;14.13;;
75628;SDS011;64213;46.452;16.994;2023-02-19T06:32:26;37.45;;;14.07;;
75628;SDS011;64213;46.452;16.994;2023-02-19T06:35:28;40.28;;;13.98;;
75628;SDS011;64213;46.452;16.994;2023-02-19T06:38:31;37.22;;;14.30;;
75628;SDS011;64213;46.452;16.994;2023-02-19T06:41:33;36.87;;;14.27;;
75628;SDS011;64213;46.452;16.994;2023-02-19T06:44:36;35.97;;;13.83;;
75628;SDS011;64213;46.452;16.994;2023-02-19T06:47:38;33.45;;;12.40;;
75628;SDS011;64213;46.452;16.994;2023-02-19T06:50:41;36.78;;;13.80;;
75628;SDS011;64213;46.452;16.994;2023-02-19T06:53:43;37.70;;;13.98;;
75628;SDS011;64213;46.452;16.994;2023-02-19T06:56:47;36.57;;;15.07;;
75628;SDS011;64213;46.452;16.994;2023-02-19T06:59:49;36.80;;;14.67;;
75628;SDS011;64213;46.452;16.994;2023-02-19T07:02:52;49.95;;;17.70;;
75628;SDS011;64213;46.452;16.994;2023-02-19T07:05:58;42.42;;;15.07;;
75628;SDS011;64213;46.452;16.994;2023-02-19T07:09:02;51.53;;;16.87;;
75628;SDS011;64213;46.452;16.994;2023-02-19T07:12:06;42.90;;;17.20;;
75628;SDS011;64213;46.452;16.994;2023-02-19T07:15:09;37.03;;;12.73;;
75628;SDS011;64213;46.452;16.994;2023-02-19T07:18:11;40.22;;;15.07;;
75628;SDS011;64213;46.452;16.994;2023-02-19T07:21:14;34.75;;;13.05;;
75628;SDS011;64213;46.452;16.994;2023-02-19T07:24:18;37.97;;;13.57;;
75628;SDS011;64213;46.452;16.994;2023-02-19T07:27:22;34.47;;;13.40;;
75628;SDS011;64213;46.452;16.994;2023-02-19T07:30:24;35.17;;;13.73;;
75628;SDS011;64213;46.452;16.994;2023-02-19T07:33:27;30.90;;;13.15;;
75628;SDS011;64213;46.452;16.994;2023-02-19T07:36:29;29.50;;;12.45;;
75628;SDS011;64213;46.452;16.994;2023-02-19T07:39:32;35.38;;;14.18;;
75628;SDS011;64213;46.452;16.994;2023-02-19T07:42:34;32.83;;;13.30;;
75628;SDS011;64213;46.452;16.994;2023-02-19T07:45:36;32.33;;;12.40;;
75628;SDS011;64213;46.452;16.994;2023-02-19T07:48:40;28.90;;;11.70;;
75628;SDS011;64213;46.452;16.994;2023-02-19T07:51:43;27.83;;;11.32;;
75628;SDS011;64213;46.452;16.994;2023-02-19T07:54:46;38.58;;;13.30;;
75628;SDS011;64213;46.452;16.994;2023-02-19T07:57:49;32.03;;;13.20;;
75628;SDS011;64213;46.452;16.994;2023-02-19T08:00:51;25.57;;;10.90;;
75628;SDS011;64213;46.452;16.994;2023-02-19T08:03:54;29.73;;;10.98;;
75628;SDS011;64213;46.452;16.994;2023-02-19T08:06:56;30.00;;;12.70;;
75628;SDS011;64213;46.452;16.994;2023-02-19T08:09:59;25.80;;;9.32;;
75628;SDS011;64213;46.452;16.994;2023-02-19T08:13:20;31.10;;;11.93;;
75628;SDS011;64213;46.452;16.994;2023-02-19T08:16:28;30.30;;;11.07;;
75628;SDS011;64213;46.452;16.994;2023-02-19T08:19:43;43.72;;;15.77;;
75628;SDS011;64213;46.452;16.994;2023-02-19T08:22:46;43.28;;;15.38;;
75628;SDS011;64213;46.452;16.994;2023-02-19T08:25:48;26.35;;;11.12;;
75628;SDS011;64213;46.452;16.994;2023-02-19T08:28:51;32.77;;;14.30;;
75628;SDS011;64213;46.452;16.994;2023-02-19T08:31:54;31.33;;;13.23;;
75628;SDS011;64213;46.452;16.994;2023-02-19T08:34:56;28.95;;;11.88;;
75628;SDS011;64213;46.452;16.994;2023-02-19T08:37:59;30.77;;;12.07;;
75628;SDS011;64213;46.452;16.994;2023-02-19T08:41:05;28.77;;;11.07;;
75628;SDS011;64213;46.452;16.994;2023-02-19T08:44:10;29.63;;;12.13;;
75628;SDS011;64213;46.452;16.994;2023-02-19T08:47:12;28.20;;;11.13;;
75628;SDS011;64213;46.452;16.994;2023-02-19T08:50:15;30.58;;;12.65;;
75628;SDS011;64213;46.452;16.994;2023-02-19T08:53:18;25.27;;;9.88;;
75628;SDS011;64213;46.452;16.994;2023-02-19T08:56:20;30.08;;;12.00;;
75628;SDS011;64213;46.452;16.994;2023-02-19T08:59:23;21.40;;;8.80;;
75628;SDS011;64213;46.452;16.994;2023-02-19T09:02:25;27.20;;;11.73;;
75628;SDS011;64213;46.452;16.994;2023-02-19T09:05:28;26.00;;;10.57;;
75628;SDS011;64213;46.452;16.994;2023-02-19T09:08:30;24.02;;;10.18;;
75628;SDS011;64213;46.452;16.994;2023-02-19T09:11:33;23.95;;;9.70;;
75628;SDS011;64213;46.452;16.994;2023-02-19T09:14:36;24.03;;;10.57;;
75628;SDS011;64213;46.452;16.994;2023-02-19T09:17:39;23.50;;;9.37;;
75628;SDS011;64213;46.452;16.994;2023-02-19T09:20:41;27.35;;;10.90;;
75628;SDS011;64213;46.452;16.994;2023-02-19T09:23:43;25.55;;;10.48;;
75628;SDS011;64213;46.452;16.994;2023-02-19T09:26:49;29.40;;;11.02;;
75628;SDS011;64213;46.452;16.994;2023-02-19T09:29:56;30.67;;;11.50;;
75628;SDS011;64213;46.452;16.994;2023-02-19T09:32:58;21.23;;;8.67;;
75628;SDS011;64213;46.452;16.994;2023-02-19T09:36:01;25.00;;;9.30;;
75628;SDS011;64213;46.452;16.994;2023-02-19T09:39:05;17.35;;;7.35;;
75628;SDS011;64213;46.452;16.994;2023-02-19T09:42:16;22.92;;;9.27;;
75628;SDS011;64213;46.452;16.994;2023-02-19T09:45:22;16.97;;;6.03;;
75628;SDS011;64213;46.452;16.994;2023-02-19T09:48:26;22.90;;;9.93;;
75628;SDS011;64213;46.452;16.994;2023-02-19T09:51:28;26.42;;;9.82;;
75628;SDS011;64213;46.452;16.994;2023-02-19T09:54:35;25.45;;;9.93;;
75628;SDS011;64213;46.452;16.994;2023-02-19T09:57:41;19.67;;;8.88;;
75628;SDS011;64213;46.452;16.994;2023-02-19T10:00:45;23.43;;;10.07;;
75628;SDS011;64213;46.452;16.994;2023-02-19T10:03:51;23.23;;;10.10;;
75628;SDS011;64213;46.452;16.994;2023-02-19T10:06:55;19.80;;;8.40;;
75628;SDS011;64213;46.452;16.994;2023-02-19T10:10:17;24.35;;;10.38;;
75628;SDS011;64213;46.452;16.994;2023-02-19T10:17:03;25.20;;;9.70;;
75628;SDS011;64213;46.452;16.994;2023-02-19T10:20:13;27.30;;;11.20;;
75628;SDS011;64213;46.452;16.994;2023-02-19T10:23:17;22.83;;;8.45;;
75628;SDS011;64213;46.452;16.994;2023-02-19T10:26:20;21.23;;;9.40;;
75628;SDS011;64213;46.452;16.994;2023-02-19T10:29:24;18.25;;;7.87;;
75628;SDS011;64213;46.452;16.994;2023-02-19T10:32:28;23.20;;;9.70;;
75628;SDS011;64213;46.452;16.994;2023-02-19T10:35:36;14.60;;;5.83;;
75628;SDS011;64213;46.452;16.994;2023-02-19T10:38:59;19.73;;;8.60;;
75628;SDS011;64213;46.452;16.994;2023-02-19T10:42:04;21.27;;;9.85;;
75628;SDS011;64213;46.452;16.994;2023-02-19T10:45:11;18.40;;;8.55;;
75628;SDS011;64213;46.452;16.994;2023-02-19T10:48:28;21.93;;;9.03;;
75628;SDS011;64213;46.452;16.994;2023-02-19T10:51:38;22.87;;;9.27;;
75628;SDS011;64213;46.452;16.994;2023-02-19T10:54:42;20.95;;;8.85;;
75628;SDS011;64213;46.452;16.994;2023-02-19T10:57:46;14.82;;;7.45;;
75628;SDS011;64213;46.452;16.994;2023-02-19T11:04:22;19.87;;;8.93;;
75628;SDS011;64213;46.452;16.994;2023-02-19T11:07:25;19.50;;;8.33;;
75628;SDS011;64213;46.452;16.994;2023-02-19T11:10:37;15.18;;;6.97;;
75628;SDS011;64213;46.452;16.994;2023-02-19T11:13:41;19.98;;;8.75;;
75628;SDS011;64213;46.452;16.994;2023-02-19T11:17:03;19.23;;;8.95;;
75628;SDS011;64213;46.452;16.994;2023-02-19T11:20:08;19.85;;;8.57;;
75628;SDS011;64213;46.452;16.994;2023-02-19T11:23:21;19.17;;;8.73;;
75628;SDS011;64213;46.452;16.994;2023-02-19T11:26:34;19.98;;;9.02;;
75628;SDS011;64213;46.452;16.994;2023-02-19T11:29:39;20.20;;;9.27;;
75628;SDS011;64213;46.452;16.994;2023-02-19T11:32:41;20.58;;;8.65;;
75628;SDS011;64213;46.452;16.994;2023-02-19T11:35:45;18.17;;;8.70;;
75628;SDS011;64213;46.452;16.994;2023-02-19T11:38:49;21.03;;;9.63;;
75628;SDS011;64213;46.452;16.994;2023-02-19T11:45:24;18.95;;;8.98;;
75628;SDS011;64213;46.452;16.994;2023-02-19T11:48:44;19.67;;;8.88;;
75628;SDS011;64213;46.452;16.994;2023-02-19T12:15:46;16.83;;;8.18;;
75628;SDS011;64213;46.452;16.994;2023-02-19T12:25:28;16.27;;;6.95;;
75628;SDS011;64213;46.452;16.994;2023-02-19T12:36:05;16.98;;;7.60;;
75628;SDS011;64213;46.452;16.994;2023-02-19T12:46:13;15.03;;;7.13;;
75628;SDS011;64213;46.452;16.994;2023-02-19T12:49:30;15.23;;;7.60;;
75628;SDS011;64213;46.452;16.994;2023-02-19T12:52:39;18.55;;;7.30;;
75628;SDS011;64213;46.452;16.994;2023-02-19T12:55:45;16.25;;;7.35;;
75628;SDS011;64213;46.452;16.994;2023-02-19T12:58:51;15.45;;;7.75;;
75628;SDS011;64213;46.452;16.994;2023-02-19T13:02:12;15.03;;;7.17;;
75628;SDS011;64213;46.452;16.994;2023-02-19T13:05:35;15.73;;;7.30;;
75628;SDS011;64213;46.452;16.994;2023-02-19T13:08:50;16.55;;;6.80;;
75628;SDS011;64213;46.452;16.994;2023-02-19T13:12:16;16.23;;;7.55;;
75628;SDS011;64213;46.452;16.994;2023-02-19T13:15:32;14.77;;;7.12;;
75628;SDS011;64213;46.452;16.994;2023-02-19T13:18:50;19.53;;;9.13;;
75628;SDS011;64213;46.452;16.994;2023-02-19T13:22:01;17.37;;;7.53;;
75628;SDS011;64213;46.452;16.994;2023-02-19T13:25:55;17.02;;;7.15;;
75628;SDS011;64213;46.452;16.994;2023-02-19T13:32:24;15.90;;;7.12;;
75628;SDS011;64213;46.452;16.994;2023-02-19T13:38:53;15.10;;;7.70;;
75628;SDS011;64213;46.452;16.994;2023-02-19T13:41:59;15.38;;;7.80;;
75628;SDS011;64213;46.452;16.994;2023-02-19T13:45:04;13.20;;;6.45;;
75628;SDS011;64213;46.452;16.994;2023-02-19T13:48:12;18.12;;;7.45;;
75628;SDS011;64213;46.452;16.994;2023-02-19T13:54:32;15.93;;;6.47;;
75628;SDS011;64213;46.452;16.994;2023-02-19T13:57:42;13.13;;;6.12;;
75628;SDS011;64213;46.452;16.994;2023-02-19T14:00:48;14.93;;;6.93;;
75628;SDS011;64213;46.452;16.994;2023-02-19T14:03:53;15.15;;;6.32;;
75628;SDS011;64213;46.452;16.994;2023-02-19T14:13:56;13.40;;;6.45;;
75628;SDS011;64213;46.452;16.994;2023-02-19T14:23:15;14.30;;;6.40;;
75628;SDS011;64213;46.452;16.994;2023-02-19T14:26:19;15.32;;;6.55;;
75628;SDS011;64213;46.452;16.994;2023-02-19T14:29:25;14.50;;;6.35;;
75628;SDS011;64213;46.452;16.994;2023-02-19T14:32:31;12.13;;;5.72;;
75628;SDS011;64213;46.452;16.994;2023-02-19T14:35:41;15.23;;;5.87;;
75628;SDS011;64213;46.452;16.994;2023-02-19T14:38:49;14.67;;;5.90;;
75628;SDS011;64213;46.452;16.994;2023-02-19T14:42:00;12.27;;;5.65;;
75628;SDS011;64213;46.452;16.994;2023-02-19T14:45:08;12.18;;;5.10;;
75628;SDS011;64213;46.452;16.994;2023-02-19T14:48:15;14.27;;;5.62;;
75628;SDS011;64213;46.452;16.994;2023-02-19T14:51:40;14.05;;;5.57;;
75628;SDS011;64213;46.452;16.994;2023-02-19T14:54:51;12.27;;;5.50;;
75628;SDS011;64213;46.452;16.994;2023-02-19T14:57:58;12.93;;;5.20;;
75628;SDS011;64213;46.452;16.994;2023-02-19T15:01:23;13.05;;;5.55;;
75628;SDS011;64213;46.452;16.994;2023-02-19T15:04:34;13.00;;;5.10;;
75628;SDS011;64213;46.452;16.994;2023-02-19T15:07:39;11.93;;;5.22;;
75628;SDS011;64213;46.452;16.994;2023-02-19T15:10:44;12.43;;;5.03;;
75628;SDS011;64213;46.452;16.994;2023-02-19T15:13:56;14.63;;;5.80;;
75628;SDS011;64213;46.452;16.994;2023-02-19T15:17:03;13.95;;;6.07;;
75628;SDS011;64213;46.452;16.994;2023-02-19T15:20:09;12.73;;;5.28;;
75628;SDS011;64213;46.452;16.994;2023-02-19T15:23:21;12.52;;;5.35;;
75628;SDS011;64213;46.452;16.994;2023-02-19T15:26:30;12.00;;;4.93;;
75628;SDS011;64213;46.452;16.994;2023-02-19T15:29:37;15.30;;;5.62;;
75628;SDS011;64213;46.452;16.994;2023-02-19T15:32:55;14.27;;;5.75;;
75628;SDS011;64213;46.452;16.994;2023-02-19T15:36:01;12.57;;;5.10;;
75628;SDS011;64213;46.452;16.994;2023-02-19T15:39:15;13.62;;;5.12;;
75628;SDS011;64213;46.452;16.994;2023-02-19T15:42:27;12.83;;;5.67;;
75628;SDS011;64213;46.452;16.994;2023-02-19T15:45:41;12.98;;;5.75;;
75628;SDS011;64213;46.452;16.994;2023-02-19T15:52:10;12.37;;;5.32;;
75628;SDS011;64213;46.452;16.994;2023-02-19T15:55:25;13.57;;;6.03;;
75628;SDS011;64213;46.452;16.994;2023-02-19T15:58:50;15.50;;;5.80;;
75628;SDS011;64213;46.452;16.994;2023-02-19T16:02:01;13.70;;;5.57;;
75628;SDS011;64213;46.452;16.994;2023-02-19T16:05:10;15.65;;;5.97;;
75628;SDS011;64213;46.452;16.994;2023-02-19T16:08:17;13.85;;;5.60;;
75628;SDS011;64213;46.452;16.994;2023-02-19T16:14:34;13.37;;;6.00;;
75628;SDS011;64213;46.452;16.994;2023-02-19T16:17:43;14.02;;;5.85;;
75628;SDS011;64213;46.452;16.994;2023-02-19T16:20:47;14.65;;;5.93;;
75628;SDS011;64213;46.452;16.994;2023-02-19T16:23:59;18.58;;;7.60;;
75628;SDS011;64213;46.452;16.994;2023-02-19T16:27:12;18.25;;;8.65;;
75628;SDS011;64213;46.452;16.994;2023-02-19T16:30:31;15.70;;;6.87;;
75628;SDS011;64213;46.452;16.994;2023-02-19T16:33:37;16.20;;;7.10;;
75628;SDS011;64213;46.452;16.994;2023-02-19T16:36:43;16.70;;;7.87;;
75628;SDS011;64213;46.452;16.994;2023-02-19T16:46:19;28.40;;;13.33;;
75628;SDS011;64213;46.452;16.994;2023-02-19T16:49:22;17.37;;;8.48;;
75628;SDS011;64213;46.452;16.994;2023-02-19T16:52:27;21.15;;;8.88;;
75628;SDS011;64213;46.452;16.994;2023-02-19T16:55:32;18.27;;;8.88;;
75628;SDS011;64213;46.452;16.994;2023-02-19T16:58:38;20.02;;;8.13;;
75628;SDS011;64213;46.452;16.994;2023-02-19T17:01:42;22.87;;;10.80;;
75628;SDS011;64213;46.452;16.994;2023-02-19T17:04:46;30.52;;;12.90;;
75628;SDS011;64213;46.452;16.994;2023-02-19T17:07:51;23.12;;;9.93;;
75628;SDS011;64213;46.452;16.994;2023-02-19T17:10:56;18.85;;;8.25;;
75628;SDS011;64213;46.452;16.994;2023-02-19T17:14:01;21.37;;;9.47;;
75628;SDS011;64213;46.452;16.994;2023-02-19T17:17:07;17.33;;;7.37;;
75628;SDS011;64213;46.452;16.994;2023-02-19T17:20:17;21.60;;;9.07;;
75628;SDS011;64213;46.452;16.994;2023-02-19T17:23:21;18.92;;;8.35;;
75628;SDS011;64213;46.452;16.994;2023-02-19T17:26:27;18.45;;;8.65;;
75628;SDS011;64213;46.452;16.994;2023-02-19T17:29:32;24.30;;;10.07;;
75628;SDS011;64213;46.452;16.994;2023-02-19T17:32:36;25.73;;;11.10;;
75628;SDS011;64213;46.452;16.994;2023-02-19T17:35:40;25.52;;;11.50;;
75628;SDS011;64213;46.452;16.994;2023-02-19T17:38:46;25.52;;;11.85;;
75628;SDS011;64213;46.452;16.994;2023-02-19T17:41:50;21.37;;;10.52;;
75628;SDS011;64213;46.452;16.994;2023-02-19T17:44:54;26.37;;;10.80;;
75628;SDS011;64213;46.452;16.994;2023-02-19T17:47:58;21.83;;;10.57;;
75628;SDS011;64213;46.452;16.994;2023-02-19T17:51:02;24.37;;;10.45;;
75628;SDS011;64213;46.452;16.994;2023-02-19T17:54:06;25.45;;;10.80;;
75628;SDS011;64213;46.452;16.994;2023-02-19T17:57:11;25.80;;;10.30;;
75628;SDS011;64213;46.452;16.994;2023-02-19T18:00:16;22.83;;;10.70;;
75628;SDS011;64213;46.452;16.994;2023-02-19T18:03:23;22.40;;;11.13;;
75628;SDS011;64213;46.452;16.994;2023-02-19T18:06:28;29.37;;;13.10;;
75628;SDS011;64213;46.452;16.994;2023-02-19T18:09:32;29.48;;;14.45;;
75628;SDS011;64213;46.452;16.994;2023-02-19T18:12:37;32.90;;;14.50;;
75628;SDS011;64213;46.452;16.994;2023-02-19T18:15:45;38.53;;;18.07;;
75628;SDS011;64213;46.452;16.994;2023-02-19T18:18:48;35.77;;;16.93;;
75628;SDS011;64213;46.452;16.994;2023-02-19T18:21:55;34.67;;;16.75;;
75628;SDS011;64213;46.452;16.994;2023-02-19T18:25:00;30.05;;;13.50;;
75628;SDS011;64213;46.452;16.994;2023-02-19T18:28:07;28.30;;;11.57;;
75628;SDS011;64213;46.452;16.994;2023-02-19T18:31:12;28.67;;;12.47;;
75628;SDS011;64213;46.452;16.994;2023-02-19T18:34:16;30.70;;;12.23;;
75628;SDS011;64213;46.452;16.994;2023-02-19T18:37:22;26.62;;;12.00;;
75628;SDS011;64213;46.452;16.994;2023-02-19T18:40:26;26.27;;;11.82;;
75628;SDS011;64213;46.452;16.994;2023-02-19T18:43:33;23.67;;;10.23;;
75628;SDS011;64213;46.452;16.994;2023-02-19T18:46:36;24.07;;;10.17;;
75628;SDS011;64213;46.452;16.994;2023-02-19T18:49:43;19.70;;;7.50;;
75628;SDS011;64213;46.452;16.994;2023-02-19T18:52:51;29.02;;;12.25;;
75628;SDS011;64213;46.452;16.994;2023-02-19T18:55:56;40.33;;;16.30;;
75628;SDS011;64213;46.452;16.994;2023-02-19T18:59:04;16.30;;;6.78;;
75628;SDS011;64213;46.452;16.994;2023-02-19T19:02:08;13.87;;;5.63;;
75628;SDS011;64213;46.452;16.994;2023-02-19T19:05:15;12.23;;;5.23;;
75628;SDS011;64213;46.452;16.994;2023-02-19T19:08:23;14.07;;;5.18;;
75628;SDS011;64213;46.452;16.994;2023-02-19T19:11:27;16.15;;;4.75;;
75628;SDS011;64213;46.452;16.994;2023-02-19T19:14:31;13.93;;;4.78;;
75628;SDS011;64213;46.452;16.994;2023-02-19T19:17:36;18.10;;;6.87;;
75628;SDS011;64213;46.452;16.994;2023-02-19T19:20:42;15.67;;;5.70;;
75628;SDS011;64213;46.452;16.994;2023-02-19T19:23:48;11.18;;;4.05;;
75628;SDS011;64213;46.452;16.994;2023-02-19T19:26:52;12.55;;;4.00;;
75628;SDS011;64213;46.452;16.994;2023-02-19T19:29:56;9.48;;;2.65;;
75628;SDS011;64213;46.452;16.994;2023-02-19T19:33:00;9.77;;;2.80;;
75628;SDS011;64213;46.452;16.994;2023-02-19T19:36:06;9.73;;;2.77;;
75628;SDS011;64213;46.452;16.994;2023-02-19T19:39:12;10.68;;;3.58;;
75628;SDS011;64213;46.452;16.994;2023-02-19T19:42:17;9.98;;;2.45;;
75628;SDS011;64213;46.452;16.994;2023-02-19T19:45:22;6.45;;;1.40;;
75628;SDS011;64213;46.452;16.994;2023-02-19T19:48:29;5.17;;;1.20;;
75628;SDS011;64213;46.452;16.994;2023-02-19T19:51:36;5.73;;;0.90;;
75628;SDS011;64213;46.452;16.994;2023-02-19T19:54:50;3.25;;;0.65;;
75628;SDS011;64213;46.452;16.994;2023-02-19T19:57:57;4.47;;;0.93;;
75628;SDS011;64213;46.452;16.994;2023-02-19T20:01:03;5.03;;;0.80;;
75628;SDS011;64213;46.452;16.994;2023-02-19T20:04:08;4.00;;;0.50;;